Grande Ghana — ICEZ — position and weather

sailwx.info

Track history (hours):
 
Tides and Currents Weather Stations Pressure Air Temp Water Temp Dewpoint Dewpoint Depression Visibility Wind Speed Wind Dir Waves Ship Positions

Grande Ghana

Last reported at 2018-Jan-24 07:00 UTC. Time now 2018-Jan-24 07:09 UTC.
Position N 51°26' E 003°36'.

Length 210 m; draft 7.6 m.

Type: Cargo ship. MMSI: 247264700.

Date/timePositionNaut miles runAvg speedWind from/ knotsBaromVisibWave heightAir tempDewpointWater temp
2018-Jan-24 07:00N 51°26' E 003°36'713.4
2018-Jan-24 06:31N 51°25' E 003°26'1019.1
2018-Jan-24 06:00N 51°24' E 003°11'918.6
2018-Jan-24 05:30N 51°23' E 002°56'816.4
2018-Jan-24 05:00N 51°22' E 002°43'612.5
2018-Jan-24 04:30N 51°22' E 002°33'1019.6
2018-Jan-24 04:00N 51°18' E 002°18'1021.0
2018-Jan-24 03:30N 51°13' E 002°04'1020.9
2018-Jan-24 03:00N 51°08' E 001°49'1121.2
2018-Jan-24 02:31N 51°01' E 001°37'1020.6
2018-Jan-24 02:00N 50°52' E 001°27'3019.5
2018-Jan-24 00:27N 50°30' E 000°55'1620.8
2018-Jan-23 23:41N 50°25' E 000°31'420.8
2018-Jan-23 23:30N 50°24' E 000°25'1020.8
2018-Jan-23 23:00N 50°21' E 000°10'1020.3
2018-Jan-23 22:30N 50°20' W 000°06'1120.2
2018-Jan-23 21:57N 50°20' W 000°24'2419.3
2018-Jan-23 20:41N 50°18' W 001°02'718.2
2018-Jan-23 20:18N 50°18' W 001°13'518.0
2018-Jan-23 20:00N 50°18' W 001°21'3917.2
2018-Jan-23 17:43N 50°17' W 002°23'817.2
2018-Jan-23 17:15N 50°16' W 002°35'417.7
2018-Jan-23 17:01N 50°15' W 002°41'918.0
2018-Jan-23 16:31N 50°13' W 002°55'918.4
2018-Jan-23 16:01N 50°10' W 003°09'918.5
2018-Jan-23 15:31N 50°07' W 003°23'918.6
2018-Jan-23 15:01N 50°05' W 003°37'918.8
2018-Jan-23 14:30N 50°03' W 003°51'918.9
2018-Jan-23 14:00N 50°00' W 004°05'918.9
2018-Jan-23 13:30N 49°59' W 004°20'1019.1
2018-Jan-23 13:00N 49°57' W 004°34'1019.1
2018-Jan-23 12:30N 49°56' W 004°49'1219.1
2018-Jan-23 11:51N 49°54' W 005°08'3318.7
2018-Jan-23 10:07N 49°56' W 005°59'218.5
2018-Jan-23 10:00N 49°58' W 005°60'1217.9
2018-Jan-23 09:20N 50°10' W 006°00'617.3
2018-Jan-23 08:58N 50°16' W 006°01'917.0
2018-Jan-23 08:27N 50°25' W 006°06'2818.0
2018-Jan-23 06:53N 50°45' W 006°37'718.1
2018-Jan-23 06:29N 50°50' W 006°45'1018.1
2018-Jan-23 05:55N 50°57' W 006°57'2618.0
2018-Jan-23 04:28N 51°15' W 007°26'818.0
2018-Jan-23 04:00N 51°21' W 007°36'918.0
2018-Jan-23 03:30N 51°27' W 007°47'918.1
2018-Jan-23 03:00N 51°34' W 007°56'918.0
2018-Jan-23 02:30N 51°40' W 008°06'816.1
2018-Jan-23 02:00N 51°46' W 008°15'5 9.8
2018-Jan-23 01:30N 51°51' W 008°16'2 4.8
2018-Jan-23 01:00N 51°50' W 008°20'0 0.0
2018-Jan-23 00:30N 51°50' W 008°20'0 0.0
2018-Jan-23 00:00N 51°50' W 008°20'0 0.0
2018-Jan-22 23:30N 51°50' W 008°20'0 0.0
2018-Jan-22 23:00N 51°50' W 008°20'0 0.0
2018-Jan-22 22:30N 51°50' W 008°20'0 0.0
2018-Jan-22 22:00N 51°50' W 008°20'0 0.0
2018-Jan-22 21:30N 51°50' W 008°20'0 0.0
2018-Jan-22 21:00N 51°50' W 008°20'0 0.0
2018-Jan-22 20:30N 51°50' W 008°20'0 0.0
2018-Jan-22 20:00N 51°50' W 008°20'0 0.0
2018-Jan-22 19:30N 51°50' W 008°20'0 0.0
2018-Jan-22 19:00N 51°50' W 008°20'0 0.0
2018-Jan-22 18:30N 51°50' W 008°20'0 0.0
2018-Jan-22 18:00N 51°50' W 008°20'0 0.0
2018-Jan-22 17:30N 51°50' W 008°20'0 0.0
2018-Jan-22 17:00N 51°50' W 008°20'0 0.0
2018-Jan-22 16:30N 51°50' W 008°20'0 0.0
2018-Jan-22 16:00N 51°50' W 008°20'0 0.0
2018-Jan-22 15:30N 51°50' W 008°20'0 0.0
2018-Jan-22 15:00N 51°50' W 008°20'0 0.0
2018-Jan-22 14:30N 51°50' W 008°20'0 0.0
2018-Jan-22 14:00N 51°50' W 008°20'0 0.0
2018-Jan-22 13:31N 51°50' W 008°20'0 0.0
2018-Jan-22 13:00N 51°50' W 008°20'0 0.0
2018-Jan-22 12:30N 51°50' W 008°20'0 0.0
2018-Jan-22 12:00N 51°50' W 008°20'0 0.0
2018-Jan-22 11:30N 51°50' W 008°20'1 1.1
2018-Jan-22 11:00N 51°50' W 008°19'2 4.6
2018-Jan-22 10:31N 51°49' W 008°16'5 9.5
2018-Jan-22 10:00N 51°45' W 008°12'612.5
2018-Jan-22 09:30N 51°44' W 008°02'917.9
2018-Jan-22 09:00N 51°43' W 007°48'917.8
2018-Jan-22 08:30N 51°42' W 007°34'917.6
2018-Jan-22 08:00N 51°40' W 007°20'917.4
2018-Jan-22 07:30N 51°39' W 007°05'917.3
2018-Jan-22 06:59N 51°38' W 006°51'3817.6
2018-Jan-22 04:48N 51°33' W 005°50'517.0
2018-Jan-22 04:30N 51°32' W 005°42'917.2
2018-Jan-22 04:00N 51°31' W 005°28'917.2
2018-Jan-22 03:30N 51°30' W 005°15'917.5
2018-Jan-22 03:00N 51°28' W 005°01'918.3
2018-Jan-22 02:30N 51°27' W 004°46'918.8
2018-Jan-22 02:00N 51°26' W 004°31'1019.4
2018-Jan-22 01:30N 51°24' W 004°16'1220.3
2018-Jan-22 00:55N 51°23' W 003°57'1121.3
2018-Jan-22 00:24N 51°22' W 003°39'1121.9
2018-Jan-21 23:55N 51°21' W 003°22'613.7
2018-Jan-21 23:30N 51°21' W 003°13'917.6
2018-Jan-21 23:00N 51°26' W 003°01'918.3
2018-Jan-21 22:30N 51°30' W 002°48'3 5.6
2018-Jan-21 22:00N 51°30' W 002°43'0 0.9
2018-Jan-21 21:30N 51°30' W 002°43'0 0.0
2018-Jan-21 21:00N 51°30' W 002°43'0 0.0
2018-Jan-21 20:30N 51°30' W 002°43'0 0.0
2018-Jan-21 20:00N 51°30' W 002°43'0 0.0
2018-Jan-21 19:30N 51°30' W 002°43'0 0.0
2018-Jan-21 19:00N 51°30' W 002°43'0 0.0
2018-Jan-21 18:30N 51°30' W 002°43'0 0.0
2018-Jan-21 18:00N 51°30' W 002°43'0 0.0
2018-Jan-21 17:30N 51°30' W 002°43'0 0.0
2018-Jan-21 17:00N 51°30' W 002°43'0 0.0
2018-Jan-21 16:30N 51°30' W 002°43'0 0.0
2018-Jan-21 16:00N 51°30' W 002°43'0 0.0
2018-Jan-21 15:30N 51°30' W 002°43'0 0.0
2018-Jan-21 15:00N 51°30' W 002°43'0 0.0
2018-Jan-21 14:30N 51°30' W 002°43'0 0.0
2018-Jan-21 14:00N 51°30' W 002°43'0 0.0
2018-Jan-21 13:30N 51°30' W 002°43'0 0.0
2018-Jan-21 13:00N 51°30' W 002°43'0 0.0
2018-Jan-21 12:30N 51°30' W 002°43'0 0.0
2018-Jan-21 12:00N 51°30' W 002°43'0 0.0
2018-Jan-21 11:30N 51°30' W 002°43'0 0.0
2018-Jan-21 11:00N 51°30' W 002°43'0 0.0
2018-Jan-21 10:30N 51°30' W 002°43'0 0.0
2018-Jan-21 10:00N 51°30' W 002°43'0 0.0
2018-Jan-21 09:30N 51°30' W 002°43'0 0.0
2018-Jan-21 09:00N 51°30' W 002°43'0 0.0
2018-Jan-21 08:30N 51°30' W 002°43'0 0.0
2018-Jan-21 08:00N 51°30' W 002°43'0 0.0
2018-Jan-21 07:30N 51°30' W 002°43'0 0.0
2018-Jan-21 07:00N 51°30' W 002°43'0 0.0
2018-Jan-21 06:30N 51°30' W 002°43'0 0.0
2018-Jan-21 06:00N 51°30' W 002°43'0 0.0
2018-Jan-21 05:30N 51°30' W 002°43'0 0.0
2018-Jan-21 05:00N 51°30' W 002°43'0 0.0
2018-Jan-21 04:30N 51°30' W 002°43'0 0.0
2018-Jan-21 04:00N 51°30' W 002°43'0 0.0
2018-Jan-21 03:30N 51°30' W 002°43'0 0.0
2018-Jan-21 03:00N 51°30' W 002°43'0 0.0
2018-Jan-21 02:30N 51°30' W 002°43'0 0.0
2018-Jan-21 02:00N 51°30' W 002°43'0 0.0
2018-Jan-21 01:30N 51°30' W 002°43'0 0.0
2018-Jan-21 01:00N 51°30' W 002°43'0 0.0
2018-Jan-21 00:30N 51°30' W 002°43'0 0.0
2018-Jan-21 00:00N 51°30' W 002°43'0 0.0
2018-Jan-20 23:30N 51°30' W 002°43'0 0.0
2018-Jan-20 23:00N 51°30' W 002°43'0 0.0
2018-Jan-20 22:30N 51°30' W 002°43'0 0.0
2018-Jan-20 22:00N 51°30' W 002°43'0 0.0
2018-Jan-20 21:30N 51°30' W 002°43'0 0.0
2018-Jan-20 21:00N 51°30' W 002°43'0 0.0
2018-Jan-20 20:30N 51°30' W 002°43'0 0.0
2018-Jan-20 20:00N 51°30' W 002°43'0 0.9
2018-Jan-20 19:30N 51°30' W 002°44'0 0.0
2018-Jan-20 19:00N 51°30' W 002°44'0 1.0
2018-Jan-20 18:30N 51°30' W 002°44'4 8.2
2018-Jan-20 18:01N 51°29' W 002°50'1020.2
2018-Jan-20 17:30N 51°24' W 003°04'20 9.7
2018-Jan-20 15:29N 51°20' W 003°35'1 2.0
2018-Jan-20 14:46N 51°21' W 003°37'1 0.8
2018-Jan-20 13:50N 51°21' W 003°38'6 5.0
2018-Jan-20 12:42N 51°21' W 003°48'3 1.8
2018-Jan-20 11:07N 51°21' W 003°43'18 7.3
2018-Jan-20 08:42N 51°16' W 004°10'418.8
2018-Jan-20 08:30N 51°15' W 004°16'919.0
2018-Jan-20 08:00N 51°09' W 004°28'1020.1
2018-Jan-20 07:30N 51°02' W 004°40'1020.3
2018-Jan-20 07:00N 50°56' W 004°52'1020.4
2018-Jan-20 06:30N 50°49' W 005°04'1020.7
2018-Jan-20 06:00N 50°42' W 005°16'1020.8
2018-Jan-20 05:30N 50°35' W 005°28'1020.8
2018-Jan-20 05:00N 50°28' W 005°41'1020.4
2018-Jan-20 04:30N 50°21' W 005°52'1120.2
2018-Jan-20 03:59N 50°10' W 005°53'1020.3
2018-Jan-20 03:30N 50°01' W 005°55'65817.3
2018-Jan-18 13:30N 39°25' W 009°51'713.4
2018-Jan-18 13:00N 39°18' W 009°51'612.9
2018-Jan-18 12:30N 39°11' W 009°51'712.9
2018-Jan-18 11:59N 39°05' W 009°51'612.9
2018-Jan-18 11:30N 38°59' W 009°51'612.9
2018-Jan-18 11:00N 38°52' W 009°51'612.9
2018-Jan-18 10:30N 38°46' W 009°50'612.4
2018-Jan-18 10:00N 38°40' W 009°50'612.5
2018-Jan-18 09:30N 38°35' W 009°44'4 8.7
2018-Jan-18 09:00N 38°32' W 009°40'5 9.5
2018-Jan-18 08:30N 38°30' W 009°35'5 9.5
2018-Jan-18 08:00N 38°27' W 009°29'4 8.3
2018-Jan-18 07:30N 38°25' W 009°25'4 7.6
2018-Jan-18 07:00N 38°23' W 009°21'4 7.4
2018-Jan-18 06:30N 38°20' W 009°17'4 7.5
2018-Jan-18 06:00N 38°18' W 009°13'4 7.8
2018-Jan-18 05:30N 38°16' W 009°09'4 8.4
2018-Jan-18 05:00N 38°14' W 009°05'3 6.7
2018-Jan-18 04:30N 38°11' W 009°04'4 7.0
2018-Jan-18 04:00N 38°07' W 009°04'3 7.0
2018-Jan-18 03:30N 38°04' W 009°04'3 6.9
2018-Jan-18 03:01N 38°00' W 009°05'3 6.8
2018-Jan-18 02:30N 37°57' W 009°05'4 7.1
2018-Jan-18 02:00N 37°53' W 009°06'4 7.3
2018-Jan-18 01:30N 37°50' W 009°07'4 7.2
2018-Jan-18 01:01N 37°46' W 009°08'7 7.1
2018-Jan-18 00:00N 37°39' W 009°10'0 7.1
2018-Jan-17 23:57N 37°39' W 009°10'  
Track history (hours):
 
Tides and Currents Weather Stations Pressure Air Temp Water Temp Dewpoint Dewpoint Depression Visibility Wind Speed Wind Dir Waves Ship Positions

Grande Ghana

Last reported at 2018-Jan-24 07:00 UTC. Time now 2018-Jan-24 07:09 UTC.
Position N 51°26' E 003°36'.

Length 210 m; draft 7.6 m.

Type: Cargo ship. MMSI: 247264700.

Date/timePositionNaut miles runAvg speedWind from/ knotsBaromVisibWave heightAir tempDewpointWater temp
2018-Jan-24 07:00N 51°26' E 003°36'713.4
2018-Jan-24 06:31N 51°25' E 003°26'1019.1
2018-Jan-24 06:00N 51°24' E 003°11'918.6
2018-Jan-24 05:30N 51°23' E 002°56'816.4
2018-Jan-24 05:00N 51°22' E 002°43'612.5
2018-Jan-24 04:30N 51°22' E 002°33'1019.6
2018-Jan-24 04:00N 51°18' E 002°18'1021.0
2018-Jan-24 03:30N 51°13' E 002°04'1020.9
2018-Jan-24 03:00N 51°08' E 001°49'1121.2
2018-Jan-24 02:31N 51°01' E 001°37'1020.6
2018-Jan-24 02:00N 50°52' E 001°27'3019.5
2018-Jan-24 00:27N 50°30' E 000°55'1620.8
2018-Jan-23 23:41N 50°25' E 000°31'420.8
2018-Jan-23 23:30N 50°24' E 000°25'1020.8
2018-Jan-23 23:00N 50°21' E 000°10'1020.3
2018-Jan-23 22:30N 50°20' W 000°06'1120.2
2018-Jan-23 21:57N 50°20' W 000°24'2419.3
2018-Jan-23 20:41N 50°18' W 001°02'718.2
2018-Jan-23 20:18N 50°18' W 001°13'518.0
2018-Jan-23 20:00N 50°18' W 001°21'3917.2
2018-Jan-23 17:43N 50°17' W 002°23'817.2
2018-Jan-23 17:15N 50°16' W 002°35'417.7
2018-Jan-23 17:01N 50°15' W 002°41'918.0
2018-Jan-23 16:31N 50°13' W 002°55'918.4
2018-Jan-23 16:01N 50°10' W 003°09'918.5
2018-Jan-23 15:31N 50°07' W 003°23'918.6
2018-Jan-23 15:01N 50°05' W 003°37'918.8
2018-Jan-23 14:30N 50°03' W 003°51'918.9
2018-Jan-23 14:00N 50°00' W 004°05'918.9
2018-Jan-23 13:30N 49°59' W 004°20'1019.1
2018-Jan-23 13:00N 49°57' W 004°34'1019.1
2018-Jan-23 12:30N 49°56' W 004°49'1219.1
2018-Jan-23 11:51N 49°54' W 005°08'3318.7
2018-Jan-23 10:07N 49°56' W 005°59'218.5
2018-Jan-23 10:00N 49°58' W 005°60'1217.9
2018-Jan-23 09:20N 50°10' W 006°00'617.3
2018-Jan-23 08:58N 50°16' W 006°01'917.0
2018-Jan-23 08:27N 50°25' W 006°06'2818.0
2018-Jan-23 06:53N 50°45' W 006°37'718.1
2018-Jan-23 06:29N 50°50' W 006°45'1018.1
2018-Jan-23 05:55N 50°57' W 006°57'2618.0
2018-Jan-23 04:28N 51°15' W 007°26'818.0
2018-Jan-23 04:00N 51°21' W 007°36'918.0
2018-Jan-23 03:30N 51°27' W 007°47'918.1
2018-Jan-23 03:00N 51°34' W 007°56'918.0
2018-Jan-23 02:30N 51°40' W 008°06'816.1
2018-Jan-23 02:00N 51°46' W 008°15'5 9.8
2018-Jan-23 01:30N 51°51' W 008°16'2 4.8
2018-Jan-23 01:00N 51°50' W 008°20'0 0.0
2018-Jan-23 00:30N 51°50' W 008°20'0 0.0
2018-Jan-23 00:00N 51°50' W 008°20'0 0.0
2018-Jan-22 23:30N 51°50' W 008°20'0 0.0
2018-Jan-22 23:00N 51°50' W 008°20'0 0.0
2018-Jan-22 22:30N 51°50' W 008°20'0 0.0
2018-Jan-22 22:00N 51°50' W 008°20'0 0.0
2018-Jan-22 21:30N 51°50' W 008°20'0 0.0
2018-Jan-22 21:00N 51°50' W 008°20'0 0.0
2018-Jan-22 20:30N 51°50' W 008°20'0 0.0
2018-Jan-22 20:00N 51°50' W 008°20'0 0.0
2018-Jan-22 19:30N 51°50' W 008°20'0 0.0
2018-Jan-22 19:00N 51°50' W 008°20'0 0.0
2018-Jan-22 18:30N 51°50' W 008°20'0 0.0
2018-Jan-22 18:00N 51°50' W 008°20'0 0.0
2018-Jan-22 17:30N 51°50' W 008°20'0 0.0
2018-Jan-22 17:00N 51°50' W 008°20'0 0.0
2018-Jan-22 16:30N 51°50' W 008°20'0 0.0
2018-Jan-22 16:00N 51°50' W 008°20'0 0.0
2018-Jan-22 15:30N 51°50' W 008°20'0 0.0
2018-Jan-22 15:00N 51°50' W 008°20'0 0.0
2018-Jan-22 14:30N 51°50' W 008°20'0 0.0
2018-Jan-22 14:00N 51°50' W 008°20'0 0.0
2018-Jan-22 13:31N 51°50' W 008°20'0 0.0
2018-Jan-22 13:00N 51°50' W 008°20'0 0.0
2018-Jan-22 12:30N 51°50' W 008°20'0 0.0
2018-Jan-22 12:00N 51°50' W 008°20'0 0.0
2018-Jan-22 11:30N 51°50' W 008°20'1 1.1
2018-Jan-22 11:00N 51°50' W 008°19'2 4.6
2018-Jan-22 10:31N 51°49' W 008°16'5 9.5
2018-Jan-22 10:00N 51°45' W 008°12'612.5
2018-Jan-22 09:30N 51°44' W 008°02'917.9
2018-Jan-22 09:00N 51°43' W 007°48'917.8
2018-Jan-22 08:30N 51°42' W 007°34'917.6
2018-Jan-22 08:00N 51°40' W 007°20'917.4
2018-Jan-22 07:30N 51°39' W 007°05'917.3
2018-Jan-22 06:59N 51°38' W 006°51'3817.6
2018-Jan-22 04:48N 51°33' W 005°50'517.0
2018-Jan-22 04:30N 51°32' W 005°42'917.2
2018-Jan-22 04:00N 51°31' W 005°28'917.2
2018-Jan-22 03:30N 51°30' W 005°15'917.5
2018-Jan-22 03:00N 51°28' W 005°01'918.3
2018-Jan-22 02:30N 51°27' W 004°46'918.8
2018-Jan-22 02:00N 51°26' W 004°31'1019.4
2018-Jan-22 01:30N 51°24' W 004°16'1220.3
2018-Jan-22 00:55N 51°23' W 003°57'1121.3
2018-Jan-22 00:24N 51°22' W 003°39'1121.9
2018-Jan-21 23:55N 51°21' W 003°22'613.7
2018-Jan-21 23:30N 51°21' W 003°13'917.6
2018-Jan-21 23:00N 51°26' W 003°01'918.3
2018-Jan-21 22:30N 51°30' W 002°48'3 5.6
2018-Jan-21 22:00N 51°30' W 002°43'0 0.9
2018-Jan-21 21:30N 51°30' W 002°43'0 0.0
2018-Jan-21 21:00N 51°30' W 002°43'0 0.0
2018-Jan-21 20:30N 51°30' W 002°43'0 0.0
2018-Jan-21 20:00N 51°30' W 002°43'0 0.0
2018-Jan-21 19:30N 51°30' W 002°43'0 0.0
2018-Jan-21 19:00N 51°30' W 002°43'0 0.0
2018-Jan-21 18:30N 51°30' W 002°43'0 0.0
2018-Jan-21 18:00N 51°30' W 002°43'0 0.0
2018-Jan-21 17:30N 51°30' W 002°43'0 0.0
2018-Jan-21 17:00N 51°30' W 002°43'0 0.0
2018-Jan-21 16:30N 51°30' W 002°43'0 0.0
2018-Jan-21 16:00N 51°30' W 002°43'0 0.0
2018-Jan-21 15:30N 51°30' W 002°43'0 0.0
2018-Jan-21 15:00N 51°30' W 002°43'0 0.0
2018-Jan-21 14:30N 51°30' W 002°43'0 0.0
2018-Jan-21 14:00N 51°30' W 002°43'0 0.0
2018-Jan-21 13:30N 51°30' W 002°43'0 0.0
2018-Jan-21 13:00N 51°30' W 002°43'0 0.0
2018-Jan-21 12:30N 51°30' W 002°43'0 0.0
2018-Jan-21 12:00N 51°30' W 002°43'0 0.0
2018-Jan-21 11:30N 51°30' W 002°43'0 0.0
2018-Jan-21 11:00N 51°30' W 002°43'0 0.0
2018-Jan-21 10:30N 51°30' W 002°43'0 0.0
2018-Jan-21 10:00N 51°30' W 002°43'0 0.0
2018-Jan-21 09:30N 51°30' W 002°43'0 0.0
2018-Jan-21 09:00N 51°30' W 002°43'0 0.0
2018-Jan-21 08:30N 51°30' W 002°43'0 0.0
2018-Jan-21 08:00N 51°30' W 002°43'0 0.0
2018-Jan-21 07:30N 51°30' W 002°43'0 0.0
2018-Jan-21 07:00N 51°30' W 002°43'0 0.0
2018-Jan-21 06:30N 51°30' W 002°43'0 0.0
2018-Jan-21 06:00N 51°30' W 002°43'0 0.0
2018-Jan-21 05:30N 51°30' W 002°43'0 0.0
2018-Jan-21 05:00N 51°30' W 002°43'0 0.0
2018-Jan-21 04:30N 51°30' W 002°43'0 0.0
2018-Jan-21 04:00N 51°30' W 002°43'0 0.0
2018-Jan-21 03:30N 51°30' W 002°43'0 0.0
2018-Jan-21 03:00N 51°30' W 002°43'0 0.0
2018-Jan-21 02:30N 51°30' W 002°43'0 0.0
2018-Jan-21 02:00N 51°30' W 002°43'0 0.0
2018-Jan-21 01:30N 51°30' W 002°43'0 0.0
2018-Jan-21 01:00N 51°30' W 002°43'0 0.0
2018-Jan-21 00:30N 51°30' W 002°43'0 0.0
2018-Jan-21 00:00N 51°30' W 002°43'0 0.0
2018-Jan-20 23:30N 51°30' W 002°43'0 0.0
2018-Jan-20 23:00N 51°30' W 002°43'0 0.0
2018-Jan-20 22:30N 51°30' W 002°43'0 0.0
2018-Jan-20 22:00N 51°30' W 002°43'0 0.0
2018-Jan-20 21:30N 51°30' W 002°43'0 0.0
2018-Jan-20 21:00N 51°30' W 002°43'0 0.0
2018-Jan-20 20:30N 51°30' W 002°43'0 0.0
2018-Jan-20 20:00N 51°30' W 002°43'0 0.9
2018-Jan-20 19:30N 51°30' W 002°44'0 0.0
2018-Jan-20 19:00N 51°30' W 002°44'0 1.0
2018-Jan-20 18:30N 51°30' W 002°44'4 8.2
2018-Jan-20 18:01N 51°29' W 002°50'1020.2
2018-Jan-20 17:30N 51°24' W 003°04'20 9.7
2018-Jan-20 15:29N 51°20' W 003°35'1 2.0
2018-Jan-20 14:46N 51°21' W 003°37'1 0.8
2018-Jan-20 13:50N 51°21' W 003°38'6 5.0
2018-Jan-20 12:42N 51°21' W 003°48'3 1.8
2018-Jan-20 11:07N 51°21' W 003°43'18 7.3
2018-Jan-20 08:42N 51°16' W 004°10'418.8
2018-Jan-20 08:30N 51°15' W 004°16'919.0
2018-Jan-20 08:00N 51°09' W 004°28'1020.1
2018-Jan-20 07:30N 51°02' W 004°40'1020.3
2018-Jan-20 07:00N 50°56' W 004°52'1020.4
2018-Jan-20 06:30N 50°49' W 005°04'1020.7
2018-Jan-20 06:00N 50°42' W 005°16'1020.8
2018-Jan-20 05:30N 50°35' W 005°28'1020.8
2018-Jan-20 05:00N 50°28' W 005°41'1020.4
2018-Jan-20 04:30N 50°21' W 005°52'1120.2
2018-Jan-20 03:59N 50°10' W 005°53'1020.3
2018-Jan-20 03:30N 50°01' W 005°55'65817.3
2018-Jan-18 13:30N 39°25' W 009°51'713.4
2018-Jan-18 13:00N 39°18' W 009°51'612.9
2018-Jan-18 12:30N 39°11' W 009°51'712.9
2018-Jan-18 11:59N 39°05' W 009°51'612.9
2018-Jan-18 11:30N 38°59' W 009°51'612.9
2018-Jan-18 11:00N 38°52' W 009°51'612.9
2018-Jan-18 10:30N 38°46' W 009°50'612.4
2018-Jan-18 10:00N 38°40' W 009°50'612.5
2018-Jan-18 09:30N 38°35' W 009°44'4 8.7
2018-Jan-18 09:00N 38°32' W 009°40'5 9.5
2018-Jan-18 08:30N 38°30' W 009°35'5 9.5
2018-Jan-18 08:00N 38°27' W 009°29'4 8.3
2018-Jan-18 07:30N 38°25' W 009°25'4 7.6
2018-Jan-18 07:00N 38°23' W 009°21'4 7.4
2018-Jan-18 06:30N 38°20' W 009°17'4 7.5
2018-Jan-18 06:00N 38°18' W 009°13'4 7.8
2018-Jan-18 05:30N 38°16' W 009°09'4 8.4
2018-Jan-18 05:00N 38°14' W 009°05'3 6.7
2018-Jan-18 04:30N 38°11' W 009°04'4 7.0
2018-Jan-18 04:00N 38°07' W 009°04'3 7.0
2018-Jan-18 03:30N 38°04' W 009°04'3 6.9
2018-Jan-18 03:01N 38°00' W 009°05'3 6.8
2018-Jan-18 02:30N 37°57' W 009°05'4 7.1
2018-Jan-18 02:00N 37°53' W 009°06'4 7.3
2018-Jan-18 01:30N 37°50' W 009°07'4 7.2
2018-Jan-18 01:01N 37°46' W 009°08'7 7.1
2018-Jan-18 00:00N 37°39' W 009°10'0 7.1
2018-Jan-17 23:57N 37°39' W 009°10'  

Dump ship's entire track history